Time;durP1;ratioP1;P1;durP2;ratioP2;P2;SDS_P1;SDS_P2;PMS_P1;PMS_P2;Temp;Humidity;BMP_temperature;BMP_pressure;BME280_temperature;BME280_humidity;BME280_pressure;Samples;Min_cycle;Max_cycle;Signal;HPM_P1;HPM_P2
2023/04/27 00:00:46;;;;;;;13.20;9.18;;;17.50;1.00;;;;;;5031747;28;20028;-64
2023/04/27 00:03:12;;;;;;;13.63;8.63;;;17.60;1.00;;;;;;5031525;28;20060;-64
2023/04/27 00:05:38;;;;;;;12.18;9.07;;;17.50;1.00;;;;;;5031040;28;20022;-64
2023/04/27 00:08:07;;;;;;;14.15;8.95;;;17.50;1.00;;;;;;5033147;28;20029;-64
2023/04/27 00:10:33;;;;;;;11.60;7.95;;;17.50;1.00;;;;;;5035023;28;20018;-64
2023/04/27 00:12:59;;;;;;;11.75;8.85;;;17.50;1.00;;;;;;5025548;28;20495;-64
2023/04/27 00:15:24;;;;;;;10.80;8.38;;;17.50;1.00;;;;;;5050644;28;20034;-64
2023/04/27 00:17:50;;;;;;;13.20;8.70;;;17.40;1.00;;;;;;5028422;28;20379;-64
2023/04/27 00:20:17;;;;;;;12.23;9.25;;;17.40;1.00;;;;;;5027294;28;20480;-64
2023/04/27 00:22:43;;;;;;;14.40;9.38;;;17.40;1.00;;;;;;5034924;28;20029;-64
2023/04/27 00:25:11;;;;;;;12.30;8.93;;;17.30;1.00;;;;;;5035418;28;20156;-64
2023/04/27 00:27:36;;;;;;;9.57;7.90;;;17.40;1.00;;;;;;5033500;28;20025;-64
2023/04/27 00:30:03;;;;;;;14.80;8.93;;;17.40;1.00;;;;;;5035637;28;20032;-64
2023/04/27 00:32:29;;;;;;;10.90;8.05;;;17.30;1.00;;;;;;5024249;28;20064;-64
2023/04/27 00:34:54;;;;;;;10.48;8.05;;;17.30;1.00;;;;;;5035107;28;20025;-64
2023/04/27 00:37:20;;;;;;;10.27;8.10;;;17.30;1.00;;;;;;5035124;28;20061;-64
2023/04/27 00:39:46;;;;;;;13.57;7.82;;;17.30;1.00;;;;;;5034514;28;20029;-64
2023/04/27 00:42:15;;;;;;;13.48;8.75;;;17.20;1.00;;;;;;5034476;28;20392;-64
2023/04/27 00:44:40;;;;;;;10.05;7.90;;;17.20;1.00;;;;;;5035268;28;20033;-64
2023/04/27 00:47:06;;;;;;;13.10;8.43;;;17.20;1.00;;;;;;5035001;28;20382;-64
2023/04/27 00:49:32;;;;;;;11.63;7.50;;;17.20;1.00;;;;;;5034571;28;20017;-64
2023/04/27 00:51:59;;;;;;;12.88;8.55;;;17.10;1.00;;;;;;5034440;28;20483;-64
2023/04/27 00:54:25;;;;;;;10.55;7.30;;;17.10;1.00;;;;;;5034984;28;20421;-64
2023/04/27 00:56:51;;;;;;;9.23;7.25;;;17.10;1.00;;;;;;5034787;28;20029;-64
2023/04/27 00:59:18;;;;;;;11.95;7.85;;;17.10;1.00;;;;;;5033476;28;20033;-64
2023/04/27 01:01:47;;;;;;;9.18;7.53;;;17.00;1.00;;;;;;5034134;28;20026;-64
2023/04/27 01:04:30;;;;;;;10.30;6.80;;;17.00;1.00;;;;;;5034629;28;20476;-64
2023/04/27 01:06:56;;;;;;;10.55;7.47;;;16.90;1.00;;;;;;5022620;28;20390;-64
2023/04/27 01:09:24;;;;;;;8.45;6.88;;;16.90;1.00;;;;;;5034555;28;20033;-64
2023/04/27 01:11:50;;;;;;;11.07;6.47;;;16.90;1.00;;;;;;5033926;28;20029;-64
2023/04/27 01:14:16;;;;;;;9.57;6.55;;;16.90;1.00;;;;;;5034535;28;20060;-64
2023/04/27 01:16:43;;;;;;;9.35;6.43;;;16.90;1.00;;;;;;5034596;28;20038;-64
2023/04/27 01:19:08;;;;;;;9.18;6.57;;;16.90;1.00;;;;;;5033904;28;20087;-64
2023/04/27 01:21:34;;;;;;;10.32;6.18;;;16.90;1.00;;;;;;5034356;28;20410;-64
2023/04/27 01:24:00;;;;;;;8.30;6.38;;;16.80;1.00;;;;;;5033945;28;20026;-64
2023/04/27 01:26:25;;;;;;;8.02;6.70;;;16.80;1.00;;;;;;5034454;28;20021;-64
2023/04/27 01:28:51;;;;;;;9.82;6.45;;;16.80;1.00;;;;;;5032664;28;20487;-64
2023/04/27 01:31:17;;;;;;;8.57;5.97;;;16.70;1.00;;;;;;5033452;28;20099;-64
2023/04/27 01:33:44;;;;;;;10.88;6.00;;;16.70;1.00;;;;;;5033345;28;20505;-64
2023/04/27 01:36:10;;;;;;;7.78;5.50;;;16.70;1.00;;;;;;5033946;28;20052;-64
2023/04/27 01:38:36;;;;;;;9.60;6.35;;;16.70;1.00;;;;;;5033465;28;20132;-64
2023/04/27 01:41:06;;;;;;;9.20;5.63;;;16.60;1.00;;;;;;5033573;28;20045;-64
2023/04/27 01:43:31;;;;;;;8.73;5.57;;;16.60;1.00;;;;;;5032684;28;20099;-64
2023/04/27 01:46:26;;;;;;;7.25;5.85;;;16.60;1.00;;;;;;5033501;28;20026;-64
2023/04/27 01:48:52;;;;;;;7.47;5.65;;;16.60;1.00;;;;;;5024698;28;20073;-64
2023/04/27 01:51:18;;;;;;;9.02;6.03;;;16.50;1.00;;;;;;5033335;28;20395;-64
2023/04/27 01:53:44;;;;;;;6.63;5.38;;;16.50;1.00;;;;;;5033342;28;20120;-64
2023/04/27 01:56:10;;;;;;;8.50;5.95;;;16.50;1.00;;;;;;5032300;28;20105;-64
2023/04/27 01:58:38;;;;;;;7.10;5.90;;;16.40;1.00;;;;;;5031905;28;20033;-64
2023/04/27 02:01:04;;;;;;;6.25;5.05;;;16.50;1.00;;;;;;5033095;28;20025;-64
2023/04/27 02:03:33;;;;;;;8.95;5.47;;;16.40;1.00;;;;;;5033837;28;20025;-64
2023/04/27 02:05:59;;;;;;;6.75;6.03;;;16.40;1.00;;;;;;5033220;28;20398;-65
2023/04/27 02:08:25;;;;;;;8.48;5.75;;;16.40;1.00;;;;;;5033332;28;20030;-64
2023/04/27 02:10:51;;;;;;;9.55;6.05;;;16.30;1.00;;;;;;5033204;28;20048;-64
2023/04/27 02:13:17;;;;;;;8.60;6.03;;;16.40;1.00;;;;;;5036083;28;20123;-64
2023/04/27 02:15:42;;;;;;;8.82;6.55;;;16.30;1.00;;;;;;5051575;28;20067;-64
2023/04/27 02:18:08;;;;;;;10.80;6.57;;;16.30;1.00;;;;;;5038883;28;20029;-64
2023/04/27 02:20:33;;;;;;;9.07;6.53;;;16.30;1.00;;;;;;5035803;28;20093;-64
2023/04/27 02:23:02;;;;;;;10.43;6.53;;;16.30;1.00;;;;;;5044683;28;20025;-64
2023/04/27 02:25:28;;;;;;;11.43;6.55;;;16.30;1.00;;;;;;5032852;28;20072;-64
2023/04/27 02:27:53;;;;;;;11.63;6.93;;;16.30;1.00;;;;;;5032769;28;20049;-64
2023/04/27 02:30:20;;;;;;;13.38;6.93;;;16.20;1.00;;;;;;5045649;28;20421;-64
2023/04/27 02:32:46;;;;;;;10.82;6.70;;;16.20;1.00;;;;;;5033650;28;20040;-64
2023/04/27 02:35:12;;;;;;;9.30;6.35;;;16.20;1.00;;;;;;5033151;28;20025;-64
2023/04/27 02:37:37;;;;;;;10.35;6.55;;;16.20;1.00;;;;;;5032470;28;20057;-64
2023/04/27 02:40:06;;;;;;;10.13;6.50;;;16.10;1.00;;;;;;5033210;28;20520;-64
2023/04/27 02:42:32;;;;;;;12.43;7.00;;;16.10;1.00;;;;;;5032733;28;20030;-64
2023/04/27 02:44:57;;;;;;;9.98;7.03;;;16.10;1.00;;;;;;5032727;28;20022;-64
2023/04/27 02:47:23;;;;;;;10.07;6.32;;;16.00;1.00;;;;;;5035375;28;20033;-64
2023/04/27 02:49:49;;;;;;;9.05;6.25;;;16.00;1.00;;;;;;5032518;28;20045;-64
2023/04/27 02:52:15;;;;;;;11.85;6.93;;;16.00;1.00;;;;;;5032033;28;20041;-64
2023/04/27 02:54:40;;;;;;;11.60;7.60;;;16.00;1.00;;;;;;5032316;28;20327;-64
2023/04/27 02:57:06;;;;;;;14.02;7.40;;;16.00;1.00;;;;;;5031827;28;20530;-64
2023/04/27 02:59:32;;;;;;;10.27;7.05;;;16.00;1.00;;;;;;5032763;28;20033;-64
2023/04/27 03:01:57;;;;;;;10.88;7.57;;;15.90;1.00;;;;;;5032649;28;20029;-64
2023/04/27 03:04:23;;;;;;;9.52;7.03;;;15.90;1.00;;;;;;5032346;28;20021;-64
2023/04/27 03:06:49;;;;;;;10.75;8.07;;;15.90;1.00;;;;;;5032226;28;20060;-64
2023/04/27 03:09:15;;;;;;;12.55;7.50;;;15.90;1.00;;;;;;5031481;28;20034;-64
2023/04/27 03:11:41;;;;;;;12.25;7.80;;;15.90;1.00;;;;;;5030989;28;20581;-64
2023/04/27 03:14:07;;;;;;;10.95;7.05;;;15.90;1.00;;;;;;5032863;28;20029;-64
2023/04/27 03:16:33;;;;;;;12.43;7.07;;;15.80;1.00;;;;;;5032703;28;20026;-65
2023/04/27 03:18:59;;;;;;;11.40;7.68;;;15.80;1.00;;;;;;5032859;28;20026;-64
2023/04/27 03:21:28;;;;;;;9.55;6.97;;;15.80;1.00;;;;;;5033244;28;20387;-64
2023/04/27 03:23:54;;;;;;;11.90;7.63;;;15.80;1.00;;;;;;5031019;28;20018;-64
2023/04/27 03:26:19;;;;;;;10.20;7.22;;;15.70;1.00;;;;;;5032231;28;20033;-64
2023/04/27 03:28:45;;;;;;;12.70;6.85;;;15.70;1.00;;;;;;5032377;28;20028;-65
2023/04/27 03:31:12;;;;;;;7.55;6.30;;;15.80;1.00;;;;;;5031078;28;20127;-64
2023/04/27 03:33:39;;;;;;;10.18;7.32;;;15.80;1.00;;;;;;5032569;28;20068;-64
2023/04/27 03:36:06;;;;;;;9.02;7.00;;;15.70;1.00;;;;;;5032137;28;20029;-64
2023/04/27 03:38:32;;;;;;;9.68;6.90;;;15.70;1.00;;;;;;5025328;28;20064;-64
2023/04/27 03:40:58;;;;;;;10.27;7.28;;;15.70;1.00;;;;;;5032218;28;20025;-64
2023/04/27 03:43:24;;;;;;;11.55;7.30;;;15.70;1.00;;;;;;5036231;28;20030;-64
2023/04/27 03:45:50;;;;;;;10.77;7.15;;;15.70;1.00;;;;;;5035805;28;20022;-64
2023/04/27 03:48:17;;;;;;;6.50;5.82;;;15.60;1.00;;;;;;5036239;28;20030;-64
2023/04/27 03:50:43;;;;;;;8.13;6.43;;;15.60;1.00;;;;;;5034219;28;20087;-64
2023/04/27 03:53:10;;;;;;;8.95;6.50;;;15.60;1.00;;;;;;5035954;28;20107;-64
2023/04/27 03:55:40;;;;;;;7.90;5.85;;;15.60;1.00;;;;;;5036123;28;20022;-64
2023/04/27 03:58:06;;;;;;;9.05;5.68;;;15.60;1.00;;;;;;5030083;28;20108;-64
2023/04/27 04:00:32;;;;;;;8.18;5.93;;;15.60;1.00;;;;;;5036134;28;20064;-64
2023/04/27 04:06:26;;;;;;;8.32;6.35;;;15.50;1.00;;;;;;5035259;28;20071;-64
2023/04/27 04:08:53;;;;;;;7.75;5.60;;;15.50;1.00;;;;;;5032783;28;20056;-64
2023/04/27 04:11:18;;;;;;;7.78;5.93;;;15.50;1.00;;;;;;5032457;28;20045;-64
2023/04/27 04:13:44;;;;;;;10.43;5.75;;;15.30;1.00;;;;;;5035413;28;20095;-64
2023/04/27 04:16:10;;;;;;;8.50;5.70;;;15.40;1.00;;;;;;5035676;28;20029;-64
2023/04/27 04:18:36;;;;;;;7.32;5.80;;;15.30;1.00;;;;;;5035443;28;20021;-64
2023/04/27 04:21:01;;;;;;;12.13;6.55;;;15.40;1.00;;;;;;5044302;28;20079;-64
2023/04/27 04:23:27;;;;;;;8.60;5.35;;;15.40;1.00;;;;;;5040560;28;20021;-64
2023/04/27 04:25:56;;;;;;;8.30;5.90;;;15.40;1.00;;;;;;5025407;28;20494;-64
2023/04/27 04:28:23;;;;;;;7.50;5.28;;;15.30;1.00;;;;;;5033546;28;20025;-64
2023/04/27 04:30:49;;;;;;;9.48;5.57;;;15.30;1.00;;;;;;5035578;28;20028;-64
2023/04/27 04:33:16;;;;;;;7.13;6.10;;;15.30;1.00;;;;;;5034345;28;20092;-64
2023/04/27 04:35:41;;;;;;;8.95;5.50;;;15.30;1.00;;;;;;5034829;28;20026;-64
2023/04/27 04:38:07;;;;;;;9.38;5.28;;;15.30;1.00;;;;;;5033312;28;20110;-64
2023/04/27 04:40:33;;;;;;;7.82;5.80;;;15.20;1.00;;;;;;5035080;28;20391;-64
2023/04/27 04:42:59;;;;;;;10.23;5.07;;;15.30;1.00;;;;;;5033700;28;20017;-64
2023/04/27 04:45:25;;;;;;;8.40;4.80;;;15.20;1.00;;;;;;5035474;28;20018;-64
2023/04/27 04:47:53;;;;;;;8.75;5.30;;;15.20;1.00;;;;;;5034320;28;20033;-64
2023/04/27 04:50:19;;;;;;;7.15;4.88;;;15.30;1.00;;;;;;5034997;28;20483;-64
2023/04/27 04:52:45;;;;;;;6.15;4.72;;;15.30;1.00;;;;;;5034274;28;20025;-65
2023/04/27 04:55:10;;;;;;;9.13;5.40;;;15.20;1.00;;;;;;5034979;28;20079;-65
2023/04/27 04:57:36;;;;;;;10.00;5.45;;;15.20;1.00;;;;;;5034482;28;20033;-64
2023/04/27 05:00:10;;;;;;;7.95;5.30;;;15.20;1.00;;;;;;5034693;28;20049;-64
2023/04/27 05:02:36;;;;;;;8.77;5.65;;;15.20;1.00;;;;;;5034596;28;20029;-64
2023/04/27 05:05:02;;;;;;;7.18;4.63;;;15.20;1.00;;;;;;5034754;28;20051;-64
2023/04/27 05:07:28;;;;;;;10.35;4.78;;;15.20;1.00;;;;;;5034327;28;20025;-65
2023/04/27 05:09:53;;;;;;;8.55;4.60;;;15.20;1.00;;;;;;5034287;28;20376;-64
2023/04/27 05:12:19;;;;;;;6.10;4.68;;;15.20;1.00;;;;;;5033674;28;20048;-65
2023/04/27 05:14:45;;;;;;;8.27;5.45;;;15.20;1.00;;;;;;5033847;28;20025;-65
2023/04/27 05:17:11;;;;;;;10.68;5.43;;;15.20;1.00;;;;;;5034213;28;20524;-64
2023/04/27 05:19:37;;;;;;;8.32;4.95;;;15.20;1.00;;;;;;5034702;28;20033;-64
2023/04/27 05:22:03;;;;;;;10.25;5.03;;;15.20;1.00;;;;;;5034038;28;20399;-64
2023/04/27 05:24:29;;;;;;;5.90;4.43;;;15.20;1.00;;;;;;5034453;28;20026;-64
2023/04/27 05:26:54;;;;;;;6.50;4.60;;;15.20;1.00;;;;;;5033833;28;20032;-64
2023/04/27 05:29:21;;;;;;;8.32;5.03;;;15.20;1.00;;;;;;5034271;28;20037;-64
2023/04/27 05:31:46;;;;;;;8.20;5.18;;;15.10;1.00;;;;;;5024514;28;20034;-64
2023/04/27 05:34:12;;;;;;;8.70;5.15;;;15.10;1.00;;;;;;5033457;28;20029;-64
2023/04/27 05:36:38;;;;;;;5.03;4.40;;;15.20;1.00;;;;;;5033862;28;20453;-65
2023/04/27 05:39:22;;;;;;;7.40;4.78;;;15.20;1.00;;;;;;5033873;28;20124;-65
2023/04/27 05:41:48;;;;;;;6.72;4.82;;;15.20;1.00;;;;;;5033921;28;20510;-65
2023/04/27 05:44:13;;;;;;;6.88;5.35;;;15.20;1.00;;;;;;5033969;28;20017;-65
2023/04/27 05:46:39;;;;;;;6.65;5.10;;;15.20;1.00;;;;;;5024638;28;20030;-65
2023/04/27 05:49:05;;;;;;;6.45;5.03;;;15.20;1.00;;;;;;5032539;28;20064;-65
2023/04/27 05:51:33;;;;;;;9.48;4.85;;;15.20;1.00;;;;;;5033374;28;20030;-65
2023/04/27 05:54:00;;;;;;;5.50;4.90;;;15.20;1.00;;;;;;5032193;28;20037;-64
2023/04/27 05:56:26;;;;;;;8.82;5.55;;;15.20;1.00;;;;;;5033731;28;20112;-65
2023/04/27 05:58:52;;;;;;;8.63;5.47;;;15.20;1.00;;;;;;5033605;28;20075;-64
2023/04/27 06:01:19;;;;;;;7.90;4.78;;;15.10;1.00;;;;;;5033362;28;20033;-64
2023/04/27 06:03:44;;;;;;;8.43;5.47;;;15.10;1.00;;;;;;5033035;28;20028;-64
2023/04/27 06:06:10;;;;;;;7.93;5.72;;;15.20;1.00;;;;;;5032241;28;20116;-64
2023/04/27 06:08:38;;;;;;;7.93;4.82;;;15.20;1.00;;;;;;5032286;28;20427;-65
2023/04/27 06:11:04;;;;;;;8.02;5.65;;;15.20;1.00;;;;;;5032623;28;20108;-65
2023/04/27 06:13:31;;;;;;;9.25;5.35;;;15.20;1.00;;;;;;5033621;28;20160;-64
2023/04/27 06:15:56;;;;;;;11.02;5.97;;;15.20;1.00;;;;;;5033008;28;20018;-64
2023/04/27 06:18:22;;;;;;;6.88;4.90;;;15.30;1.00;;;;;;5033459;28;20391;-64
2023/04/27 06:20:48;;;;;;;8.20;6.45;;;15.30;1.00;;;;;;5031538;28;20020;-64
2023/04/27 06:23:13;;;;;;;9.73;5.57;;;15.30;1.00;;;;;;5040501;28;20534;-64
2023/04/27 06:25:39;;;;;;;12.30;5.75;;;15.20;1.00;;;;;;5031880;28;20032;-64
2023/04/27 06:28:05;;;;;;;9.15;4.95;;;15.30;1.00;;;;;;5033232;28;20028;-64
2023/04/27 06:30:38;;;;;;;6.53;5.07;;;15.30;1.00;;;;;;5032367;28;20479;-65
2023/04/27 06:33:04;;;;;;;7.30;5.65;;;15.20;1.00;;;;;;5033145;28;20306;-64
2023/04/27 06:35:30;;;;;;;5.07;4.60;;;15.30;1.00;;;;;;5033092;28;20030;-64
2023/04/27 06:37:57;;;;;;;8.10;5.32;;;15.30;1.00;;;;;;5032434;28;20042;-64
2023/04/27 06:40:24;;;;;;;8.30;5.32;;;15.30;1.00;;;;;;5032640;28;20018;-64
2023/04/27 06:42:50;;;;;;;7.95;6.13;;;15.40;1.00;;;;;;5032486;28;20466;-64
2023/04/27 06:45:15;;;;;;;6.15;4.70;;;15.40;1.00;;;;;;5033258;28;20067;-64
2023/04/27 06:47:41;;;;;;;6.47;5.10;;;15.40;1.00;;;;;;5032329;28;20029;-64
2023/04/27 06:50:07;;;;;;;5.68;4.72;;;15.40;1.00;;;;;;5029179;28;20030;-64
2023/04/27 06:52:33;;;;;;;8.88;5.25;;;15.40;1.00;;;;;;5022504;28;20048;-64
2023/04/27 06:54:58;;;;;;;6.18;5.47;;;15.50;1.00;;;;;;5046566;28;20033;-65
2023/04/27 06:57:24;;;;;;;5.82;4.88;;;15.50;1.00;;;;;;5039397;28;20033;-64
2023/04/27 06:59:50;;;;;;;7.15;5.40;;;15.50;1.00;;;;;;5042728;28;20033;-65
2023/04/27 07:02:16;;;;;;;8.43;5.40;;;15.60;1.00;;;;;;5043165;28;20525;-64
2023/04/27 07:04:42;;;;;;;6.40;4.40;;;15.50;1.00;;;;;;5044595;28;20108;-64
2023/04/27 07:07:08;;;;;;;8.13;4.57;;;15.50;1.00;;;;;;5039917;28;20443;-64
2023/04/27 07:09:33;;;;;;;7.13;4.93;;;15.50;1.00;;;;;;5041337;28;20017;-64
2023/04/27 07:12:00;;;;;;;10.15;5.85;;;15.50;1.00;;;;;;5048761;28;20029;-64
2023/04/27 07:14:26;;;;;;;10.68;5.15;;;15.50;1.00;;;;;;5042785;28;20021;-64
2023/04/27 07:16:51;;;;;;;9.70;4.85;;;15.60;1.00;;;;;;5051597;28;20013;-64
2023/04/27 07:19:17;;;;;;;6.22;4.65;;;15.50;1.00;;;;;;5052786;28;20489;-66
2023/04/27 07:21:43;;;;;;;10.02;5.72;;;15.60;1.00;;;;;;5052233;28;20415;-63
2023/04/27 07:24:08;;;;;;;7.65;4.80;;;15.70;1.00;;;;;;5048248;28;20199;-64
2023/04/27 07:26:35;;;;;;;6.30;4.38;;;15.70;1.00;;;;;;5051247;28;20025;-65
2023/04/27 07:29:00;;;;;;;10.18;5.18;;;15.70;1.00;;;;;;5043241;28;20081;-64
2023/04/27 07:31:26;;;;;;;8.88;4.53;;;15.60;1.00;;;;;;5053098;28;20067;-64
2023/04/27 07:33:53;;;;;;;6.38;4.07;;;15.80;1.00;;;;;;5052184;28;20055;-64
2023/04/27 07:36:19;;;;;;;5.47;4.05;;;15.80;1.00;;;;;;5051691;28;20414;-64
2023/04/27 07:38:45;;;;;;;6.97;5.57;;;15.80;1.00;;;;;;5053081;28;20041;-65
2023/04/27 07:41:11;;;;;;;6.00;5.40;;;15.80;1.00;;;;;;5052198;28;20067;-65
2023/04/27 07:43:36;;;;;;;6.78;5.10;;;15.80;1.00;;;;;;5050473;28;20375;-65
2023/04/27 07:46:02;;;;;;;6.13;5.43;;;15.90;1.00;;;;;;5050607;28;20037;-65
2023/04/27 07:48:28;;;;;;;8.07;4.82;;;16.00;1.00;;;;;;5053246;28;20020;-65
2023/04/27 07:50:54;;;;;;;6.10;4.60;;;16.00;1.00;;;;;;5046802;28;20049;-64
2023/04/27 07:53:20;;;;;;;8.18;5.32;;;16.10;1.00;;;;;;5051867;28;20037;-64
2023/04/27 07:55:45;;;;;;;5.85;4.50;;;16.20;1.00;;;;;;5052215;28;20014;-65
2023/04/27 07:58:11;;;;;;;5.13;4.43;;;16.20;1.00;;;;;;5047767;28;20100;-65
2023/04/27 08:00:37;;;;;;;4.40;4.00;;;16.20;1.00;;;;;;5052294;28;20420;-65
2023/04/27 08:03:03;;;;;;;6.25;4.82;;;16.20;1.00;;;;;;5045874;28;20460;-65
2023/04/27 08:05:28;;;;;;;6.40;5.72;;;16.30;1.00;;;;;;5052078;28;20017;-64
2023/04/27 08:07:54;;;;;;;5.78;4.25;;;16.40;1.00;;;;;;5047044;28;20063;-65
2023/04/27 08:10:20;;;;;;;8.05;6.15;;;16.40;1.00;;;;;;5051043;28;20112;-66
2023/04/27 08:12:45;;;;;;;6.35;5.78;;;16.50;1.00;;;;;;5047427;28;20170;-65
2023/04/27 08:15:11;;;;;;;8.13;4.80;;;16.50;1.00;;;;;;5051031;28;20013;-65
2023/04/27 08:17:40;;;;;;;6.00;5.38;;;16.60;1.00;;;;;;5049279;28;20372;-65
2023/04/27 08:20:12;;;;;;;8.60;5.30;;;16.60;1.00;;;;;;5051319;28;20095;-65
2023/04/27 08:22:39;;;;;;;6.10;4.70;;;16.70;1.00;;;;;;5048564;28;20390;-65
2023/04/27 08:25:06;;;;;;;6.15;5.55;;;16.70;1.00;;;;;;5052331;28;20021;-65
2023/04/27 08:27:39;;;;;;;5.15;4.65;;;16.70;1.00;;;;;;5020797;28;20030;-65
2023/04/27 08:30:05;;;;;;;5.70;4.97;;;16.70;1.00;;;;;;5022494;28;20068;-65
2023/04/27 08:32:31;;;;;;;6.05;4.78;;;16.70;1.00;;;;;;5034781;28;20033;-65
2023/04/27 08:34:56;;;;;;;7.80;4.97;;;16.70;1.00;;;;;;5035003;28;20029;-65
2023/04/27 08:37:22;;;;;;;6.75;5.40;;;16.60;1.00;;;;;;5035224;28;20041;-64
2023/04/27 08:39:48;;;;;;;9.45;5.38;;;16.70;1.00;;;;;;5034610;28;20029;-65
2023/04/27 08:42:14;;;;;;;8.35;4.93;;;16.80;1.00;;;;;;5035071;28;20025;-63
2023/04/27 08:44:40;;;;;;;8.77;5.65;;;16.90;1.00;;;;;;5032985;28;20030;-63
2023/04/27 08:47:07;;;;;;;5.85;4.53;;;17.00;1.00;;;;;;5035167;28;20025;-64
2023/04/27 08:49:55;;;;;;;6.45;4.57;;;17.00;1.00;;;;;;5035044;28;20051;-64
2023/04/27 08:52:21;;;;;;;4.97;4.43;;;17.10;1.00;;;;;;5034484;28;20124;-63
2023/04/27 08:54:47;;;;;;;7.70;5.22;;;17.10;1.00;;;;;;5034912;28;20100;-64
2023/04/27 08:57:14;;;;;;;8.30;5.30;;;17.20;1.00;;;;;;5034878;28;20426;-65
2023/04/27 08:59:40;;;;;;;5.95;4.72;;;17.20;1.00;;;;;;5034810;28;20072;-64
2023/04/27 09:02:16;;;;;;;7.93;5.72;;;17.40;1.00;;;;;;5034511;28;20109;-64
2023/04/27 09:04:42;;;;;;;7.40;5.03;;;17.40;1.00;;;;;;5034805;28;20427;-64
2023/04/27 09:07:15;;;;;;;5.30;4.80;;;17.40;1.00;;;;;;5033943;28;20060;-64
2023/04/27 09:09:42;;;;;;;9.10;5.57;;;17.50;1.00;;;;;;5034880;28;20080;-64
2023/04/27 09:12:19;;;;;;;9.38;5.55;;;17.50;1.00;;;;;;5020846;28;20037;-64
2023/04/27 09:15:05;;;;;;;5.38;4.88;;;17.60;1.00;;;;;;5034331;28;20025;-65
2023/04/27 09:17:43;;;;;;;5.90;5.30;;;17.60;1.00;;;;;;5021155;28;20064;-64
2023/04/27 09:20:41;;;;;;;6.88;5.13;;;17.80;1.00;;;;;;5031617;28;20494;-65
2023/04/27 09:23:06;;;;;;;9.20;5.15;;;17.80;1.00;;;;;;5034272;28;20021;-65
2023/04/27 09:25:32;;;;;;;6.82;5.18;;;17.80;1.00;;;;;;5034235;28;20501;-65
2023/04/27 09:27:59;;;;;;;5.68;5.18;;;17.90;1.00;;;;;;5030306;28;20022;-65
2023/04/27 09:30:29;;;;;;;6.90;4.93;;;17.90;1.00;;;;;;5031097;28;20030;-65
2023/04/27 09:33:05;;;;;;;6.45;5.68;;;18.00;1.00;;;;;;5029980;28;20076;-65
2023/04/27 09:35:32;;;;;;;11.48;5.57;;;18.00;1.00;;;;;;5025784;28;20108;-65
2023/04/27 09:37:59;;;;;;;6.53;5.13;;;18.20;1.00;;;;;;5027013;28;20049;-65
2023/04/27 09:40:28;;;;;;;7.82;5.85;;;18.30;1.00;;;;;;5029688;28;20018;-66
2023/04/27 09:43:00;;;;;;;6.57;5.13;;;18.40;1.00;;;;;;5026596;28;20028;-66
2023/04/27 09:45:26;;;;;;;7.88;5.20;;;18.50;1.00;;;;;;5031204;28;20036;-65
2023/04/27 09:47:53;;;;;;;8.63;5.70;;;18.50;1.00;;;;;;5029351;28;20156;-65
2023/04/27 09:50:20;;;;;;;6.35;5.70;;;18.60;1.00;;;;;;5030074;28;20045;-65
2023/04/27 09:52:46;;;;;;;7.78;5.25;;;18.60;1.00;;;;;;5031442;28;20434;-66
2023/04/27 09:55:24;;;;;;;8.40;5.78;;;18.70;1.00;;;;;;5030220;28;20057;-66
2023/04/27 09:58:02;;;;;;;6.97;6.38;;;18.80;1.00;;;;;;5027218;28;20060;-65
2023/04/27 10:00:36;;;;;;;8.02;5.90;;;18.80;1.00;;;;;;5024310;28;20561;-66
2023/04/27 10:03:20;;;;;;;7.45;6.75;;;18.90;1.00;;;;;;5026981;28;20029;-65
2023/04/27 10:06:09;;;;;;;9.98;7.93;;;19.00;1.00;;;;;;5030107;28;20064;-66
2023/04/27 10:08:35;;;;;;;7.30;6.60;;;19.10;1.00;;;;;;5030574;28;20025;-66
2023/04/27 10:11:14;;;;;;;7.75;7.05;;;19.10;1.00;;;;;;5030006;28;20044;-66
2023/04/27 10:13:51;;;;;;;7.22;6.20;;;19.30;1.00;;;;;;5029091;28;20491;-66
2023/04/27 10:16:17;;;;;;;7.93;6.75;;;19.50;1.00;;;;;;5025838;28;20036;-65
2023/04/27 10:18:51;;;;;;;10.90;6.68;;;19.50;1.00;;;;;;5029118;28;20025;-66
2023/04/27 10:21:17;;;;;;;7.80;6.90;;;19.60;1.00;;;;;;5027221;28;20045;-66
2023/04/27 10:23:50;;;;;;;12.02;7.63;;;19.70;1.00;;;;;;5030215;28;20029;-66
2023/04/27 10:26:26;;;;;;;6.90;6.30;;;19.80;1.00;;;;;;5029532;28;20538;-66
2023/04/27 10:28:57;;;;;;;8.80;6.70;;;19.90;1.00;;;;;;5028544;28;20111;-66
2023/04/27 10:31:28;;;;;;;7.40;6.70;;;20.00;1.00;;;;;;5028854;28;20590;-65
2023/04/27 10:34:05;;;;;;;8.18;7.45;;;20.00;1.00;;;;;;5031935;28;20036;-65
2023/04/27 10:36:36;;;;;;;7.90;7.10;;;20.10;1.00;;;;;;5031076;28;20044;-66
2023/04/27 10:39:05;;;;;;;10.27;7.10;;;20.10;1.00;;;;;;5032980;28;20060;-65
2023/04/27 10:41:35;;;;;;;7.80;6.97;;;20.10;1.00;;;;;;5033109;28;20112;-65
2023/04/27 10:44:15;;;;;;;8.68;7.80;;;20.20;1.00;;;;;;5038265;28;20025;-66
2023/04/27 10:46:55;;;;;;;9.85;7.88;;;20.30;1.00;;;;;;5048951;28;20036;-66
2023/04/27 10:49:21;;;;;;;8.35;7.15;;;20.50;1.00;;;;;;5043766;28;20478;-66
2023/04/27 10:51:49;;;;;;;10.70;7.97;;;20.60;1.00;;;;;;5047371;28;20478;-66
2023/04/27 10:54:15;;;;;;;9.00;7.20;;;20.50;1.00;;;;;;5044109;28;20029;-66
2023/04/27 10:56:42;;;;;;;8.07;7.38;;;20.70;1.00;;;;;;5032340;28;20024;-65
2023/04/27 10:59:08;;;;;;;10.48;8.35;;;20.80;1.00;;;;;;5049353;28;20032;-65
2023/04/27 11:01:35;;;;;;;11.25;8.48;;;20.90;1.00;;;;;;5041386;28;20406;-65
2023/04/27 11:04:01;;;;;;;11.98;8.43;;;21.10;1.00;;;;;;5048188;28;20112;-66
2023/04/27 11:06:33;;;;;;;11.35;8.50;;;21.20;1.00;;;;;;5046435;28;20056;-65
2023/04/27 11:09:00;;;;;;;14.32;8.48;;;21.20;1.00;;;;;;5044163;28;20490;-66
2023/04/27 11:11:25;;;;;;;8.60;7.80;;;21.20;1.00;;;;;;5044321;28;20060;-65
2023/04/27 11:13:52;;;;;;;9.32;8.43;;;21.30;1.00;;;;;;5050470;28;20065;-65
2023/04/27 11:16:20;;;;;;;10.07;8.05;;;21.30;1.00;;;;;;5043745;28;20449;-66
2023/04/27 11:18:46;;;;;;;9.20;8.07;;;21.30;1.00;;;;;;5036656;28;20025;-66
2023/04/27 11:21:20;;;;;;;9.98;7.80;;;21.30;1.00;;;;;;5036301;28;20523;-66
2023/04/27 11:23:46;;;;;;;10.98;8.70;;;21.40;1.00;;;;;;5032294;28;20033;-65
2023/04/27 11:26:25;;;;;;;13.85;8.40;;;21.60;1.00;;;;;;5032065;28;20108;-65
2023/04/27 11:28:58;;;;;;;12.15;9.00;;;21.80;1.00;;;;;;5031271;28;20026;-66
2023/04/27 11:31:46;;;;;;;;;;;22.00;1.00;;;;;;5031692;28;20418;-66
2023/04/27 11:34:25;;;;;;;12.43;9.60;;;22.00;1.00;;;;;;5031993;28;19913;-66
2023/04/27 11:37:22;;;;;;;11.30;9.07;;;22.20;1.00;;;;;;5046555;28;20535;-66
2023/04/27 11:39:48;;;;;;;10.88;8.90;;;22.40;1.00;;;;;;5031408;28;20095;-66
2023/04/27 11:42:18;;;;;;;14.02;9.77;;;22.60;1.00;;;;;;5032537;28;20057;-66
2023/04/27 11:44:53;;;;;;;11.32;9.05;;;22.70;1.00;;;;;;5032183;28;20025;-66
2023/04/27 11:47:21;;;;;;;9.88;8.60;;;22.60;1.00;;;;;;5015186;28;20030;-65
2023/04/27 11:49:54;;;;;;;10.93;8.52;;;22.70;1.00;;;;;;5058095;28;20132;-65
2023/04/27 11:52:20;;;;;;;9.80;8.77;;;23.20;1.00;;;;;;5032142;28;20421;-66
2023/04/27 11:54:51;;;;;;;10.48;8.85;;;24.80;99.90;;;;;;5032357;28;20032;-64
2023/04/27 11:57:28;;;;;;;14.55;9.82;;;27.70;99.90;;;;;;5031834;28;20030;-65
2023/04/27 11:59:55;;;;;;;14.68;9.90;;;31.10;99.90;;;;;;5032223;28;20025;-65
2023/04/27 12:02:22;;;;;;;10.77;9.40;;;32.40;99.90;;;;;;5032582;28;20029;-65
2023/04/27 12:04:50;;;;;;;10.00;8.95;;;32.40;99.90;;;;;;5035056;28;20112;-65
2023/04/27 12:07:17;;;;;;;10.38;9.10;;;33.70;99.90;;;;;;5035790;28;20076;-65
2023/04/27 12:10:08;;;;;;;10.70;9.50;;;35.30;99.90;;;;;;5035328;28;20151;-65
2023/04/27 12:12:34;;;;;;;9.45;8.50;;;34.90;99.90;;;;;;5032454;28;20068;-65
2023/04/27 12:15:00;;;;;;;10.65;9.55;;;35.90;99.90;;;;;;5035582;28;20100;-65
2023/04/27 12:17:26;;;;;;;10.40;9.35;;;36.60;99.90;;;;;;5040533;28;20428;-64
2023/04/27 12:19:52;;;;;;;10.43;8.95;;;38.30;99.90;;;;;;5052791;28;20024;-65
2023/04/27 12:22:17;;;;;;;10.98;9.95;;;39.00;99.90;;;;;;5047739;28;20038;-64
2023/04/27 12:24:43;;;;;;;11.20;10.10;;;39.30;99.90;;;;;;5052177;28;20470;-65
2023/04/27 12:27:14;;;;;;;11.20;10.10;;;39.10;99.90;;;;;;5050766;28;20025;-65
2023/04/27 12:29:40;;;;;;;11.82;10.65;;;36.90;99.90;;;;;;5035096;28;20020;-65
2023/04/27 12:32:05;;;;;;;11.10;10.10;;;35.80;99.90;;;;;;5039658;28;20471;-64
2023/04/27 12:34:31;;;;;;;11.65;10.40;;;35.00;99.90;;;;;;5044412;28;20028;-66
2023/04/27 12:36:57;;;;;;;11.50;9.20;;;35.10;99.90;;;;;;5052122;28;20022;-66
2023/04/27 12:39:25;;;;;;;13.15;10.27;;;36.70;99.90;;;;;;5046061;28;20044;-65
2023/04/27 12:41:52;;;;;;;13.40;10.90;;;38.90;99.90;;;;;;5040940;28;20029;-65
2023/04/27 12:44:19;;;;;;;10.10;9.13;;;40.20;99.90;;;;;;5048604;28;20025;-65
2023/04/27 12:46:47;;;;;;;11.52;10.43;;;41.60;99.90;;;;;;5051061;28;20025;-65
2023/04/27 12:49:13;;;;;;;11.95;10.73;;;41.40;99.90;;;;;;5051724;28;20021;-66
2023/04/27 12:51:38;;;;;;;12.30;11.20;;;40.60;99.90;;;;;;5048925;28;20067;-65
2023/04/27 12:54:06;;;;;;;11.88;10.77;;;40.80;99.90;;;;;;5049646;28;20064;-66
2023/04/27 12:56:32;;;;;;;12.50;11.25;;;41.20;99.90;;;;;;5036052;28;20390;-65
2023/04/27 12:58:58;;;;;;;12.05;10.60;;;42.00;99.90;;;;;;5044998;28;20108;-65